createdAt,value
2018-08-19T00:02:28.147Z,7.10
2018-08-19T00:05:11.290Z,6.77
2018-08-19T00:07:41.011Z,6.50
2018-08-19T00:10:11.012Z,6.07
2018-08-19T00:12:44.953Z,6.83
2018-08-19T00:15:15.276Z,7.17
2018-08-19T00:17:45.075Z,6.73
2018-08-19T00:20:15.111Z,8.37
2018-08-19T00:22:45.100Z,8.97
2018-08-19T00:25:31.809Z,8.67
2018-08-19T00:28:01.748Z,8.03
2018-08-19T00:30:33.473Z,8.13
2018-08-19T00:33:03.535Z,8.33
2018-08-19T00:35:34.052Z,6.93
2018-08-19T00:38:03.812Z,8.30
2018-08-19T00:40:33.459Z,6.90
2018-08-19T00:43:03.125Z,8.27
2018-08-19T00:45:33.409Z,7.43
2018-08-19T00:48:03.083Z,8.07
2018-08-19T00:50:33.671Z,8.43
2018-08-19T00:53:03.828Z,7.60
2018-08-19T00:55:38.843Z,7.77
2018-08-19T00:58:19.687Z,8.10
2018-08-19T01:00:49.307Z,7.27
2018-08-19T01:03:19.001Z,8.43
2018-08-19T01:05:48.946Z,7.93
2018-08-19T01:08:18.719Z,8.30
2018-08-19T01:10:48.269Z,7.77
2018-08-19T01:13:17.835Z,7.43
2018-08-19T01:15:47.471Z,7.90
2018-08-19T01:18:17.033Z,8.07
2018-08-19T01:20:46.783Z,7.93
2018-08-19T01:23:16.604Z,7.53
2018-08-19T01:25:46.209Z,8.47
2018-08-19T01:28:15.799Z,8.07
2018-08-19T01:30:46.018Z,8.40
2018-08-19T01:33:16.865Z,8.27
2018-08-19T01:35:47.090Z,8.03
2018-08-19T01:38:16.657Z,8.17
2018-08-19T01:40:46.159Z,8.00
2018-08-19T01:43:15.682Z,8.20
2018-08-19T01:45:45.239Z,8.27
2018-08-19T01:48:15.014Z,8.77
2018-08-19T01:50:44.847Z,7.93
2018-08-19T01:53:15.158Z,7.87
2018-08-19T01:55:44.990Z,7.60
2018-08-19T01:58:14.685Z,8.27
2018-08-19T02:00:44.270Z,8.57
2018-08-19T02:03:13.986Z,8.23
2018-08-19T02:05:43.774Z,8.30
2018-08-19T02:08:14.532Z,7.73
2018-08-19T02:10:44.348Z,8.20
2018-08-19T02:13:14.061Z,8.03
2018-08-19T02:15:43.765Z,6.57
2018-08-19T02:18:13.558Z,7.03
2018-08-19T02:20:43.246Z,8.00
2018-08-19T02:23:13.593Z,8.83
2018-08-19T02:25:45.383Z,8.70
2018-08-19T02:28:19.405Z,8.70
2018-08-19T02:30:54.342Z,8.80
2018-08-19T02:33:24.537Z,8.00
2018-08-19T02:35:59.245Z,8.53
2018-08-19T02:38:28.893Z,8.10
2018-08-19T02:40:58.393Z,8.80
2018-08-19T02:43:28.317Z,8.73
2018-08-19T02:45:57.884Z,8.30
2018-08-19T02:48:46.243Z,8.20
2018-08-19T02:51:17.411Z,8.10
2018-08-19T02:53:48.399Z,7.70
2018-08-19T02:56:18.681Z,7.00
2018-08-19T02:58:49.409Z,9.20
2018-08-19T03:01:19.142Z,9.03
2018-08-19T03:03:48.710Z,6.63
2018-08-19T03:06:18.227Z,7.23
2018-08-19T03:08:55.947Z,7.20
2018-08-19T03:11:26.194Z,7.33
2018-08-19T03:13:57.064Z,7.30
2018-08-19T03:16:26.632Z,7.77
2018-08-19T03:18:56.326Z,7.50
2018-08-19T03:21:26.056Z,7.30
2018-08-19T03:23:55.703Z,7.37
2018-08-19T03:26:25.204Z,6.97
2018-08-19T03:28:55.093Z,7.70
2018-08-19T03:31:25.006Z,7.00
2018-08-19T03:33:54.616Z,7.33
2018-08-19T03:36:24.804Z,8.00
2018-08-19T03:39:12.908Z,6.80
2018-08-19T03:41:43.295Z,7.30
2018-08-19T03:44:13.621Z,7.50
2018-08-19T03:46:43.237Z,7.57
2018-08-19T03:49:12.905Z,7.27
2018-08-19T03:51:43.651Z,7.33
2018-08-19T03:54:14.327Z,7.17
2018-08-19T03:56:43.929Z,6.87
2018-08-19T03:59:13.430Z,6.97
2018-08-19T04:01:46.615Z,7.57
2018-08-19T04:04:17.591Z,7.53
2018-08-19T04:06:47.307Z,7.90
2018-08-19T04:09:16.927Z,6.63
2018-08-19T04:11:59.209Z,6.53
2018-08-19T04:14:30.305Z,7.13
2018-08-19T04:17:01.033Z,6.90
2018-08-19T04:19:31.310Z,7.20
2018-08-19T04:22:03.704Z,7.43
2018-08-19T04:24:34.147Z,8.30
2018-08-19T04:27:12.693Z,8.10
2018-08-19T04:29:42.158Z,8.37
2018-08-19T04:32:19.387Z,8.80
2018-08-19T04:34:49.017Z,9.27
2018-08-19T04:37:18.818Z,10.13
2018-08-19T04:39:48.422Z,11.97
2018-08-19T04:42:18.091Z,11.63
2018-08-19T04:44:47.663Z,8.37
2018-08-19T04:47:30.044Z,7.77
2018-08-19T04:50:00.702Z,10.77
2018-08-19T04:52:32.230Z,10.97
2018-08-19T04:55:02.623Z,11.57
2018-08-19T04:57:32.088Z,11.23
2018-08-19T05:00:01.684Z,11.13
2018-08-19T05:02:32.146Z,10.63
2018-08-19T05:05:01.853Z,10.90
2018-08-19T05:07:32.819Z,10.27
2018-08-19T05:10:03.405Z,10.30
2018-08-19T05:12:33.691Z,10.07
2018-08-19T05:15:04.089Z,9.93
2018-08-19T05:17:33.780Z,9.93
2018-08-19T05:20:14.715Z,9.53
2018-08-19T05:22:44.977Z,9.40
2018-08-19T05:25:15.101Z,9.70
2018-08-19T05:27:46.956Z,9.10
2018-08-19T05:30:17.403Z,9.30
2018-08-19T05:32:51.175Z,9.47
2018-08-19T05:35:20.711Z,9.13
2018-08-19T05:37:52.848Z,8.63
2018-08-19T05:40:22.396Z,8.60
2018-08-19T05:42:52.041Z,9.20
2018-08-19T05:45:22.319Z,9.00
2018-08-19T05:48:08.554Z,8.40
2018-08-19T05:50:38.114Z,9.70
2018-08-19T05:53:08.265Z,8.90
2018-08-19T05:55:38.473Z,8.77
2018-08-19T05:58:07.948Z,8.50
2018-08-19T06:00:42.288Z,8.70
2018-08-19T06:03:13.871Z,8.97
2018-08-19T06:05:47.945Z,8.80
2018-08-19T06:08:18.333Z,8.20
2018-08-19T06:10:48.242Z,9.00
2018-08-19T06:13:17.908Z,8.73
2018-08-19T06:15:49.009Z,9.10
2018-08-19T06:18:18.829Z,9.40
2018-08-19T06:20:49.617Z,9.27
2018-08-19T06:23:21.666Z,9.63
2018-08-19T06:25:51.495Z,9.57
2018-08-19T06:28:21.120Z,8.80
2018-08-19T06:30:51.513Z,8.67
2018-08-19T06:33:22.477Z,9.40
2018-08-19T06:35:52.193Z,8.40
2018-08-19T06:38:21.740Z,9.27
2018-08-19T06:40:51.655Z,8.90
2018-08-19T06:43:21.187Z,8.60
2018-08-19T06:45:51.423Z,9.30
2018-08-19T06:48:20.933Z,8.83
2018-08-19T06:50:51.556Z,8.77
2018-08-19T06:53:26.828Z,8.10
2018-08-19T06:55:56.401Z,8.70
2018-08-19T06:58:26.618Z,9.03
2018-08-19T07:00:56.256Z,8.67
2018-08-19T07:03:25.901Z,8.77
2018-08-19T07:06:09.191Z,8.80
2018-08-19T07:08:41.448Z,8.77
2018-08-19T07:11:10.994Z,8.97
2018-08-19T07:13:40.688Z,8.87
2018-08-19T07:16:11.808Z,8.53
2018-08-19T07:18:41.413Z,8.10
2018-08-19T07:21:11.018Z,8.40
2018-08-19T07:23:40.631Z,7.87
2018-08-19T07:26:10.842Z,7.90
2018-08-19T07:28:40.322Z,8.30
2018-08-19T07:31:10.346Z,7.97
2018-08-19T07:33:40.386Z,7.67
2018-08-19T07:36:10.289Z,7.90
2018-08-19T07:38:39.968Z,8.00
2018-08-19T07:41:09.497Z,7.40
2018-08-19T07:43:38.979Z,7.57
2018-08-19T07:46:09.443Z,8.20
2018-08-19T07:48:39.281Z,6.87
2018-08-19T07:51:09.763Z,7.67
2018-08-19T07:53:39.668Z,6.87
2018-08-19T07:56:09.291Z,7.13
2018-08-19T07:58:42.534Z,6.60
2018-08-19T08:01:12.128Z,6.20
2018-08-19T08:03:42.133Z,6.17
2018-08-19T08:06:12.092Z,7.10
2018-08-19T08:08:41.843Z,6.53
2018-08-19T08:11:12.432Z,7.13
2018-08-19T08:13:43.047Z,6.17
2018-08-19T08:16:12.812Z,5.80
2018-08-19T08:18:42.422Z,6.50
2018-08-19T08:21:14.791Z,5.60
2018-08-19T08:23:44.349Z,5.97
2018-08-19T08:26:14.028Z,5.80
2018-08-19T08:28:52.473Z,6.00
2018-08-19T08:31:22.730Z,6.00
2018-08-19T08:33:52.335Z,5.73
2018-08-19T08:36:22.006Z,5.97
2018-08-19T08:38:51.854Z,6.80
2018-08-19T08:41:21.404Z,6.43
2018-08-19T08:43:50.970Z,7.07
2018-08-19T08:46:20.978Z,5.37
2018-08-19T08:48:50.510Z,5.20
2018-08-19T08:51:20.793Z,5.23
2018-08-19T08:53:51.521Z,5.63
2018-08-19T08:56:21.143Z,5.67
2018-08-19T08:58:51.690Z,5.77
2018-08-19T09:01:22.326Z,5.10
2018-08-19T09:03:53.427Z,4.83
2018-08-19T09:06:29.652Z,4.83
2018-08-19T09:08:59.575Z,4.87
2018-08-19T09:11:29.834Z,5.20
2018-08-19T09:13:59.952Z,5.50
2018-08-19T09:16:30.401Z,5.20
2018-08-19T09:19:00.017Z,4.50
2018-08-19T09:21:29.603Z,5.43
2018-08-19T09:23:59.237Z,5.20
2018-08-19T09:26:29.040Z,4.87
2018-08-19T09:28:58.675Z,5.23
2018-08-19T09:31:28.434Z,4.70
2018-08-19T09:33:58.642Z,4.97
2018-08-19T09:36:28.512Z,4.97
2018-08-19T09:38:59.217Z,5.30
2018-08-19T09:41:28.689Z,4.93
2018-08-19T09:43:58.773Z,4.67
2018-08-19T09:46:28.404Z,4.73
2018-08-19T09:48:58.829Z,4.70
2018-08-19T09:51:30.003Z,4.27
2018-08-19T09:53:59.552Z,4.57
2018-08-19T09:56:34.280Z,4.03
2018-08-19T09:59:05.466Z,4.60
2018-08-19T10:01:45.430Z,4.40
2018-08-19T10:04:22.658Z,4.30
2018-08-19T10:07:13.574Z,4.53
2018-08-19T10:09:43.304Z,3.90
2018-08-19T10:12:14.693Z,3.97
2018-08-19T10:14:44.349Z,3.50
2018-08-19T10:17:14.670Z,3.80
2018-08-19T10:19:45.872Z,3.97
2018-08-19T10:22:16.073Z,3.60
2018-08-19T10:24:46.520Z,3.73
2018-08-19T10:27:16.424Z,3.73
2018-08-19T10:29:46.906Z,3.83
2018-08-19T10:32:16.652Z,3.50
2018-08-19T10:34:46.365Z,3.70
2018-08-19T10:37:16.438Z,3.50
2018-08-19T10:39:46.686Z,3.60
2018-08-19T10:42:24.691Z,3.57
2018-08-19T10:44:54.916Z,3.47
2018-08-19T10:47:24.527Z,3.40
2018-08-19T10:50:10.353Z,3.70
2018-08-19T10:52:42.693Z,3.27
2018-08-19T10:55:13.335Z,3.73
2018-08-19T10:57:43.551Z,3.30
2018-08-19T11:00:19.092Z,3.30
2018-08-19T11:02:48.998Z,3.20
2018-08-19T11:05:19.527Z,3.40
2018-08-19T11:07:49.392Z,3.13
2018-08-19T11:10:21.057Z,2.80
2018-08-19T11:12:54.373Z,3.23
2018-08-19T11:15:49.822Z,3.00
2018-08-19T11:18:39.804Z,3.37
2018-08-19T11:21:13.704Z,3.43
2018-08-19T11:23:44.950Z,3.20
2018-08-19T11:26:14.660Z,3.40
2018-08-19T11:28:54.795Z,3.33
2018-08-19T11:31:30.463Z,2.87
2018-08-19T11:34:04.875Z,3.73
2018-08-19T11:36:40.466Z,2.90
2018-08-19T11:39:14.322Z,3.10
2018-08-19T11:41:44.360Z,3.17
2018-08-19T11:44:15.927Z,3.40
2018-08-19T11:46:46.698Z,3.10
2018-08-19T11:49:19.041Z,3.23
2018-08-19T11:51:58.001Z,2.90
2018-08-19T11:54:28.519Z,2.83
2018-08-19T11:57:06.813Z,3.00
2018-08-19T11:59:37.117Z,3.33
2018-08-19T12:02:10.779Z,2.97
2018-08-19T12:04:40.564Z,3.07
2018-08-19T12:07:10.247Z,3.37
2018-08-19T12:09:45.407Z,3.10
2018-08-19T12:12:16.283Z,3.47
2018-08-19T12:14:46.830Z,2.80
2018-08-19T12:17:16.663Z,3.20
2018-08-19T12:19:46.252Z,2.73
2018-08-19T12:22:17.704Z,3.07
2018-08-19T12:24:49.113Z,3.10
2018-08-19T12:27:23.394Z,2.93
2018-08-19T12:30:03.044Z,2.90
2018-08-19T12:32:32.888Z,3.00
2018-08-19T12:35:03.064Z,3.00
2018-08-19T12:37:33.540Z,3.20
2018-08-19T12:40:03.320Z,3.23
2018-08-19T12:42:38.548Z,2.97
2018-08-19T12:45:09.464Z,3.00
2018-08-19T12:47:39.079Z,2.67
2018-08-19T12:50:15.440Z,2.80
2018-08-19T12:52:45.340Z,3.00
2018-08-19T12:55:16.889Z,3.03
2018-08-19T12:57:51.137Z,2.77
2018-08-19T13:00:23.213Z,2.93
2018-08-19T13:02:53.393Z,2.70
2018-08-19T13:05:23.627Z,3.13
2018-08-19T13:07:53.420Z,3.07
2018-08-19T13:10:23.695Z,2.83
2018-08-19T13:12:55.121Z,2.67
2018-08-19T13:15:27.501Z,2.90
2018-08-19T13:17:58.148Z,2.83
2018-08-19T13:20:27.871Z,2.90
2018-08-19T13:23:01.800Z,2.70
2018-08-19T13:25:31.750Z,2.90
2018-08-19T13:28:01.316Z,3.00
2018-08-19T13:30:31.382Z,3.37
2018-08-19T13:33:00.999Z,3.20
2018-08-19T13:35:30.508Z,3.10
2018-08-19T13:38:00.166Z,3.10
2018-08-19T13:40:29.776Z,3.40
2018-08-19T13:43:00.142Z,2.83
2018-08-19T13:45:29.971Z,5.53
2018-08-19T13:47:59.532Z,3.00
2018-08-19T13:50:29.647Z,2.67
2018-08-19T13:52:59.224Z,2.93
2018-08-19T13:55:28.710Z,3.00
2018-08-19T13:57:58.698Z,2.90
2018-08-19T14:00:33.222Z,3.10
2018-08-19T14:03:02.822Z,2.83
2018-08-19T14:05:32.349Z,2.80
2018-08-19T14:08:01.964Z,3.00
2018-08-19T14:10:32.229Z,2.83
2018-08-19T14:13:02.030Z,2.70
2018-08-19T14:15:31.765Z,3.00
2018-08-19T14:18:01.405Z,3.00
2018-08-19T14:20:30.940Z,4.20
2018-08-19T14:23:00.560Z,2.77
2018-08-19T14:25:30.389Z,2.80
2018-08-19T14:28:01.180Z,2.77
2018-08-19T14:30:30.793Z,2.75
2018-08-19T14:33:00.203Z,3.02
2018-08-19T14:35:29.701Z,2.77
2018-08-19T14:38:00.227Z,2.85
2018-08-19T14:40:30.839Z,2.87
2018-08-19T14:43:00.713Z,2.90
2018-08-19T14:45:30.496Z,2.65
2018-08-19T14:48:00.207Z,2.63
2018-08-19T14:50:29.887Z,2.80
2018-08-19T14:53:00.334Z,2.60
2018-08-19T14:55:30.484Z,2.90
2018-08-19T14:58:00.027Z,2.70
2018-08-19T15:00:29.685Z,2.80
2018-08-19T15:02:59.278Z,2.63
2018-08-19T15:05:29.203Z,3.00
2018-08-19T15:08:06.898Z,3.20
2018-08-19T15:10:37.143Z,2.95
2018-08-19T15:13:06.828Z,2.87
2018-08-19T15:15:36.973Z,3.80
2018-08-19T15:18:06.570Z,3.95
2018-08-19T15:20:41.382Z,2.77
2018-08-19T15:23:19.810Z,3.27
2018-08-19T15:25:49.428Z,2.70
2018-08-19T15:28:19.448Z,2.98
2018-08-19T15:30:53.097Z,3.12
2018-08-19T15:33:23.884Z,2.70
2018-08-19T15:35:53.741Z,2.70
2018-08-19T15:38:27.673Z,2.80
2018-08-19T15:40:57.479Z,2.90
2018-08-19T15:43:27.619Z,2.58
2018-08-19T15:45:57.160Z,2.60
2018-08-19T15:48:26.572Z,2.83
2018-08-19T15:51:01.526Z,3.00
2018-08-19T15:53:31.479Z,2.87
2018-08-19T15:56:01.697Z,2.80
2018-08-19T15:58:31.913Z,2.67
2018-08-19T16:01:11.907Z,2.52
2018-08-19T16:03:41.487Z,2.77
2018-08-19T16:06:11.069Z,2.60
2018-08-19T16:08:40.876Z,2.83
2018-08-19T16:11:10.433Z,2.85
2018-08-19T16:13:40.618Z,2.65
2018-08-19T16:16:14.784Z,2.90
2018-08-19T16:18:45.069Z,2.60
2018-08-19T16:21:15.560Z,2.40
2018-08-19T16:23:45.523Z,2.65
2018-08-19T16:26:15.101Z,2.77
2018-08-19T16:28:44.869Z,2.90
2018-08-19T16:31:14.836Z,2.52
2018-08-19T16:33:44.421Z,2.80
2018-08-19T16:36:14.613Z,2.85
2018-08-19T16:38:45.106Z,2.70
2018-08-19T16:41:15.440Z,3.00
2018-08-19T16:43:45.384Z,2.60
2018-08-19T16:46:15.080Z,2.80
2018-08-19T16:48:45.592Z,2.83
2018-08-19T16:51:15.598Z,2.90
2018-08-19T16:53:46.169Z,2.60
2018-08-19T16:56:16.056Z,2.77
2018-08-19T16:58:46.379Z,3.00
2018-08-19T17:01:18.158Z,3.33
2018-08-19T17:03:47.836Z,3.07
2018-08-19T17:06:18.276Z,2.80
2018-08-19T17:08:48.053Z,2.40
2018-08-19T17:11:17.759Z,2.70
2018-08-19T17:13:47.890Z,2.67
2018-08-19T17:16:17.424Z,2.37
2018-08-19T17:18:47.747Z,3.23
2018-08-19T17:21:18.071Z,3.30
2018-08-19T17:23:52.173Z,3.50
2018-08-19T17:26:23.599Z,4.33
2018-08-19T17:28:53.502Z,3.87
2018-08-19T17:31:23.171Z,6.83
2018-08-19T17:33:53.163Z,18.53
2018-08-19T17:36:27.043Z,4.20
2018-08-19T17:38:57.014Z,3.63
2018-08-19T17:41:27.837Z,3.87
2018-08-19T17:43:59.925Z,3.50
2018-08-19T17:46:29.632Z,3.20
2018-08-19T17:48:59.850Z,2.73
2018-08-19T17:51:37.190Z,6.50
2018-08-19T17:54:25.591Z,4.07
2018-08-19T17:56:56.864Z,3.20
2018-08-19T17:59:27.571Z,3.47
2018-08-19T18:01:57.196Z,3.07
2018-08-19T18:04:38.112Z,3.30
2018-08-19T18:07:13.716Z,3.30
2018-08-19T18:09:47.452Z,3.43
2018-08-19T18:12:17.062Z,3.13
2018-08-19T18:14:46.722Z,3.37
2018-08-19T18:17:16.787Z,3.03
2018-08-19T18:19:47.124Z,2.60
2018-08-19T18:22:20.452Z,3.10
2018-08-19T18:25:01.225Z,3.07
2018-08-19T18:27:34.195Z,3.20
2018-08-19T18:30:04.031Z,3.63
2018-08-19T18:35:05.721Z,3.10
2018-08-19T18:37:36.215Z,3.40
2018-08-19T18:40:06.255Z,3.57
2018-08-19T18:42:40.961Z,3.70
2018-08-19T18:45:12.643Z,3.67
2018-08-19T18:47:50.739Z,3.23
2018-08-19T18:50:25.569Z,3.20
2018-08-19T18:52:55.319Z,3.60
2018-08-19T18:55:25.811Z,3.77
2018-08-19T18:57:56.715Z,4.10
2018-08-19T19:00:27.495Z,4.40
2018-08-19T19:02:59.544Z,4.17
2018-08-19T19:05:44.832Z,4.67
2018-08-19T19:08:18.212Z,3.87
2018-08-19T19:10:55.689Z,3.90
2018-08-19T19:13:26.125Z,3.90
2018-08-19T19:15:56.679Z,4.00
2018-08-19T19:18:27.384Z,4.53
2018-08-19T19:21:05.200Z,3.80
2018-08-19T19:23:42.300Z,3.80
2018-08-19T19:26:12.185Z,4.60
2018-08-19T19:28:42.769Z,3.73
2018-08-19T19:31:15.348Z,3.77
2018-08-19T19:33:45.922Z,4.07
2018-08-19T19:36:18.410Z,4.07
2018-08-19T19:38:53.776Z,3.97
2018-08-19T19:41:35.560Z,4.03
2018-08-19T19:44:23.442Z,4.00
2018-08-19T19:46:54.060Z,3.60
2018-08-19T19:49:24.993Z,4.57
2018-08-19T19:51:59.784Z,4.40
2018-08-19T19:54:31.240Z,4.17
2018-08-19T19:57:01.233Z,4.43
2018-08-19T19:59:34.096Z,4.10
2018-08-19T20:02:03.781Z,4.53
2018-08-19T20:04:36.857Z,4.80
2018-08-19T20:07:06.549Z,4.00
2018-08-19T20:09:37.673Z,4.70
2018-08-19T20:12:14.471Z,4.53
2018-08-19T20:14:49.705Z,4.33
2018-08-19T20:17:20.509Z,5.10
2018-08-19T20:19:50.668Z,5.53
2018-08-19T20:22:20.450Z,4.47
2018-08-19T20:24:50.154Z,4.93
2018-08-19T20:27:20.525Z,4.70
2018-08-19T20:29:54.536Z,5.00
2018-08-19T20:32:24.227Z,5.30
2018-08-19T20:34:54.537Z,5.20
2018-08-19T20:37:27.017Z,5.30
2018-08-19T20:39:56.737Z,5.50
2018-08-19T20:42:26.362Z,5.10
2018-08-19T20:44:57.565Z,5.23
2018-08-19T20:47:27.090Z,5.50
2018-08-19T20:49:57.605Z,5.43
2018-08-19T20:52:50.192Z,5.50
2018-08-19T20:55:19.784Z,5.33
2018-08-19T20:57:50.077Z,5.20
2018-08-19T21:00:19.597Z,5.67
2018-08-19T21:02:50.432Z,5.83
2018-08-19T21:05:20.927Z,5.60
2018-08-19T21:07:51.045Z,5.57
2018-08-19T21:10:20.850Z,5.77
2018-08-19T21:12:50.598Z,5.67
2018-08-19T21:15:24.196Z,5.50
2018-08-19T21:17:53.937Z,5.60
2018-08-19T21:20:23.648Z,5.17
2018-08-19T21:22:54.897Z,5.67
2018-08-19T21:25:25.261Z,6.00
2018-08-19T21:27:55.671Z,5.80
2018-08-19T21:30:26.256Z,6.07
2018-08-19T21:32:56.745Z,5.53
2018-08-19T21:35:31.985Z,6.03
2018-08-19T21:38:01.859Z,5.70
2018-08-19T21:40:37.169Z,5.53
2018-08-19T21:43:07.536Z,5.87
2018-08-19T21:45:38.185Z,5.67
2018-08-19T21:48:14.543Z,6.00
2018-08-19T21:50:44.782Z,5.63
2018-08-19T21:53:16.911Z,5.80
2018-08-19T21:55:48.791Z,5.90
2018-08-19T21:58:18.443Z,6.10
2018-08-19T22:00:57.463Z,5.93
2018-08-19T22:03:32.444Z,5.80
2018-08-19T22:06:09.220Z,5.60
2018-08-19T22:08:39.368Z,5.63
2018-08-19T22:11:09.022Z,5.67
2018-08-19T22:13:38.605Z,5.97
2018-08-19T22:16:10.132Z,6.27
2018-08-19T22:18:40.052Z,5.97
2018-08-19T22:21:15.664Z,6.10
2018-08-19T22:23:46.719Z,6.60
2018-08-19T22:26:18.408Z,5.67
2018-08-19T22:29:06.982Z,6.10
2018-08-19T22:31:36.992Z,7.17
2018-08-19T22:34:06.752Z,5.93
2018-08-19T22:36:36.992Z,5.70
2018-08-19T22:39:10.660Z,6.20
2018-08-19T22:41:40.284Z,6.07
2018-08-19T22:44:10.510Z,6.20
2018-08-19T22:46:40.837Z,6.97
2018-08-19T22:49:10.420Z,6.50
2018-08-19T22:51:39.944Z,7.60
2018-08-19T22:54:10.212Z,6.97
2018-08-19T22:56:39.760Z,7.37
2018-08-19T22:59:09.634Z,7.00
2018-08-19T23:01:44.516Z,7.17
2018-08-19T23:04:14.052Z,6.93
2018-08-19T23:06:43.720Z,7.13
2018-08-19T23:09:13.400Z,6.73
2018-08-19T23:11:47.682Z,6.53
2018-08-19T23:14:34.073Z,6.70
2018-08-19T23:17:06.935Z,6.30
2018-08-19T23:19:37.520Z,6.63
2018-08-19T23:22:06.947Z,6.37
2018-08-19T23:24:37.063Z,7.00
2018-08-19T23:27:07.165Z,5.90
2018-08-19T23:29:37.687Z,6.67
2018-08-19T23:32:07.422Z,5.77
2018-08-19T23:34:37.044Z,6.17
2018-08-19T23:37:07.513Z,5.83
2018-08-19T23:39:37.938Z,6.20
2018-08-19T23:42:08.095Z,6.10
2018-08-19T23:44:37.602Z,6.50
2018-08-19T23:47:07.448Z,6.70
2018-08-19T23:49:37.998Z,6.00
2018-08-19T23:52:07.787Z,5.77
2018-08-19T23:54:37.452Z,6.90
2018-08-19T23:57:07.724Z,6.83
2018-08-19T23:59:37.942Z,6.70
